Time;durP1;ratioP1;P1;durP2;ratioP2;P2;SDS_P1;SDS_P2;PMS_P1;PMS_P2;Temp;Humidity;BMP_temperature;BMP_pressure;BME280_temperature;BME280_humidity;BME280_pressure;Samples;Min_cycle;Max_cycle;Signal;HPM_P1;HPM_P2
2022/01/07 00:01:08;;;;;;;16.40;7.88;;;;;;;2.34;100.00;100526.69;5093211;28;20040;-60
2022/01/07 00:03:33;;;;;;;14.25;7.40;;;;;;;2.34;100.00;100524.09;5093270;28;20036;-60
2022/01/07 00:05:59;;;;;;;15.68;8.10;;;;;;;2.35;100.00;100510.28;5091834;28;20490;-60
2022/01/07 00:08:28;;;;;;;15.32;7.40;;;;;;;2.33;100.00;100512.88;5092057;28;20115;-60
2022/01/07 00:10:54;;;;;;;13.00;7.10;;;;;;;2.36;100.00;100504.22;5091561;28;20442;-60
2022/01/07 00:13:19;;;;;;;10.80;6.38;;;;;;;2.33;100.00;100504.25;5093236;28;20062;-60
2022/01/07 00:15:45;;;;;;;13.20;6.70;;;;;;;2.33;100.00;100493.91;5092622;28;20030;-60
2022/01/07 00:18:10;;;;;;;17.30;7.25;;;;;;;2.22;100.00;100472.47;5092256;28;20034;-60
2022/01/07 00:20:37;;;;;;;14.80;7.35;;;;;;;2.35;100.00;100494.72;5092390;28;20036;-60
2022/01/07 00:23:02;;;;;;;11.40;7.25;;;;;;;2.36;100.00;100489.53;5092783;28;20027;-60
2022/01/07 00:25:28;;;;;;;13.32;7.15;;;;;;;2.39;100.00;100493.78;5092478;28;20028;-60
2022/01/07 00:27:53;;;;;;;11.70;7.03;;;;;;;2.02;100.00;100429.56;5092601;28;20035;-60
2022/01/07 00:30:19;;;;;;;14.73;6.60;;;;;;;1.88;100.00;100403.00;5093094;28;20351;-60
2022/01/07 00:32:46;;;;;;;13.40;6.93;;;;;;;2.42;100.00;100496.34;5092767;28;20046;-60
2022/01/07 00:35:13;;;;;;;13.40;6.15;;;;;;;2.43;100.00;100488.53;5074613;28;20722;-60
2022/01/07 00:37:39;;;;;;;13.93;6.60;;;;;;;2.16;100.00;100438.88;5092506;28;20034;-61
2022/01/07 00:40:06;;;;;;;13.75;6.38;;;;;;;2.50;100.00;100478.94;5091994;28;20028;-61
2022/01/07 00:42:31;;;;;;;12.98;5.88;;;;;;;2.46;100.00;100469.50;5092789;28;20082;-60
2022/01/07 00:44:57;;;;;;;13.25;6.32;;;;;;;2.49;100.00;100475.47;5108193;28;20402;-60
2022/01/07 00:47:22;;;;;;;12.80;5.72;;;;;;;2.48;100.00;100468.56;5091661;28;20024;-60
2022/01/07 00:49:48;;;;;;;10.98;6.05;;;;;;;2.19;100.00;100429.31;5092512;28;20103;-60
2022/01/07 00:52:13;;;;;;;13.52;6.65;;;;;;;2.33;100.00;100453.25;5092496;28;20373;-60
2022/01/07 00:54:39;;;;;;;12.95;6.10;;;;;;;2.25;100.00;100454.25;5094207;28;20036;-60
2022/01/07 00:57:04;;;;;;;12.63;6.25;;;;;;;2.18;100.00;100443.13;5090792;28;20049;-60
2022/01/07 00:59:30;;;;;;;18.45;6.90;;;;;;;2.14;100.00;100443.19;5078059;28;20119;-60
2022/01/07 01:01:55;;;;;;;12.40;6.38;;;;;;;2.01;100.00;100437.34;5097081;28;20028;-60
2022/01/07 01:04:20;;;;;;;11.73;6.43;;;;;;;1.99;100.00;100433.94;5097253;28;20124;-60
2022/01/07 01:06:46;;;;;;;16.27;6.60;;;;;;;1.86;100.00;100435.81;5085052;28;20028;-60
2022/01/07 01:09:12;;;;;;;20.80;6.68;;;;;;;1.84;100.00;100435.00;5096581;28;20047;-60
2022/01/07 01:11:37;;;;;;;12.93;6.60;;;;;;;1.83;100.00;100438.47;5096713;28;20059;-60
2022/01/07 01:14:04;;;;;;;11.75;5.63;;;;;;;1.86;100.00;100427.22;5095716;28;20044;-60
2022/01/07 01:16:29;;;;;;;13.00;6.28;;;;;;;1.79;100.00;100417.84;5096712;28;20488;-60
2022/01/07 01:18:55;;;;;;;9.48;5.80;;;;;;;1.62;100.00;100392.19;5092493;28;20047;-60
2022/01/07 01:21:20;;;;;;;9.60;5.78;;;;;;;1.58;100.00;100405.19;5093718;28;20395;-61
2022/01/07 01:23:46;;;;;;;10.95;6.07;;;;;;;1.55;100.00;100404.31;5096264;28;20058;-60
2022/01/07 01:26:12;;;;;;;13.77;6.35;;;;;;;1.73;100.00;100423.06;5096620;28;20029;-60
2022/01/07 01:28:38;;;;;;;14.57;6.25;;;;;;;1.60;100.00;100406.84;5096582;28;20040;-60
2022/01/07 01:31:03;;;;;;;13.93;5.55;;;;;;;1.64;100.00;100403.34;5095390;28;20036;-60
2022/01/07 01:33:29;;;;;;;10.57;5.55;;;;;;;1.74;100.00;100404.06;5093595;28;20028;-60
2022/01/07 01:35:54;;;;;;;13.13;5.50;;;;;;;1.71;100.00;100399.81;5096178;28;20390;-60
2022/01/07 01:38:19;;;;;;;8.25;4.88;;;;;;;1.61;100.00;100377.50;5096429;28;20039;-60
2022/01/07 01:40:45;;;;;;;16.40;5.53;;;;;;;1.72;100.00;100391.16;5096254;28;20516;-60
2022/01/07 01:43:11;;;;;;;5.85;4.40;;;;;;;1.72;100.00;100375.63;5094787;28;20032;-60
2022/01/07 01:45:36;;;;;;;10.73;4.15;;;;;;;1.74;100.00;100373.00;5096211;28;20032;-61
2022/01/07 01:48:01;;;;;;;11.82;5.03;;;;;;;1.76;100.00;100363.50;5095978;28;20051;-61
2022/01/07 01:50:27;;;;;;;13.57;5.68;;;;;;;1.77;100.00;100357.41;5095869;28;20063;-61
2022/01/07 01:52:54;;;;;;;9.02;4.53;;;;;;;1.78;100.00;100351.38;5095996;28;20070;-61
2022/01/07 01:55:20;;;;;;;11.38;5.18;;;;;;;1.78;100.00;100349.63;5095827;28;20036;-60
2022/01/07 01:57:46;;;;;;;11.15;5.10;;;;;;;1.77;100.00;100337.56;5095763;28;20509;-61
2022/01/07 02:00:12;;;;;;;14.88;5.05;;;;;;;1.80;100.00;100339.22;5089379;28;20907;-60
2022/01/07 02:02:38;;;;;;;11.45;4.65;;;;;;;1.31;100.00;100245.94;5095378;28;20081;-61
2022/01/07 02:05:04;;;;;;;15.95;5.22;;;;;;;1.87;100.00;100328.75;5093483;28;20024;-61
2022/01/07 02:07:34;;;;;;;7.70;4.35;;;;;;;1.92;100.00;100331.28;5095137;28;20028;-60
2022/01/07 02:10:02;;;;;;;11.10;4.47;;;;;;;1.93;100.00;100320.88;5110905;28;20024;-61
2022/01/07 02:12:28;;;;;;;8.77;4.10;;;;;;;1.94;100.00;100320.00;5095632;28;20493;-61
2022/01/07 02:14:56;;;;;;;13.27;4.72;;;;;;;2.00;100.00;100319.91;5093715;28;20024;-60
2022/01/07 02:17:22;;;;;;;10.02;4.78;;;;;;;2.08;100.00;100305.97;5094876;28;20059;-61
2022/01/07 02:19:49;;;;;;;10.00;3.85;;;;;;;2.08;100.00;100305.97;5111273;28;20513;-59
2022/01/07 02:22:17;;;;;;;11.05;4.55;;;;;;;2.15;100.00;100302.38;5095262;28;20036;-59
2022/01/07 02:24:46;;;;;;;11.25;3.95;;;;;;;2.21;100.00;100299.69;5095121;28;20032;-59
2022/01/07 02:27:12;;;;;;;9.48;3.90;;;;;;;2.23;100.00;100290.16;5095382;28;20442;-59
2022/01/07 02:29:38;;;;;;;7.50;3.90;;;;;;;2.21;100.00;100291.91;5094870;28;20134;-60
2022/01/07 02:32:03;;;;;;;11.88;4.00;;;;;;;2.21;100.00;100289.31;5094628;28;20114;-60
2022/01/07 02:34:29;;;;;;;10.18;3.85;;;;;;;2.22;100.00;100284.13;5095172;28;20050;-60
2022/01/07 02:36:54;;;;;;;6.50;3.40;;;;;;;2.25;100.00;100278.00;5094786;28;20093;-60
2022/01/07 02:39:20;;;;;;;10.80;3.67;;;;;;;2.28;100.00;100273.63;5095097;28;20035;-59
2022/01/07 02:41:45;;;;;;;11.60;3.58;;;;;;;2.31;100.00;100275.31;5095467;28;20478;-59
2022/01/07 02:44:10;;;;;;;11.18;3.75;;;;;;;2.35;100.00;100258.81;5094846;28;20463;-60
2022/01/07 02:46:36;;;;;;;7.53;3.35;;;;;;;2.17;100.00;100243.59;5095257;28;20120;-59
2022/01/07 02:49:12;;;;;;;13.25;3.38;;;;;;;2.43;100.00;100275.91;5094687;28;20064;-59
2022/01/07 02:51:38;;;;;;;13.95;3.72;;;;;;;2.52;100.00;100277.50;5095201;28;20035;-59
2022/01/07 02:54:04;;;;;;;8.55;3.95;;;;;;;2.26;100.00;100233.06;5094936;28;20453;-59
2022/01/07 02:56:29;;;;;;;14.23;3.58;;;;;;;2.54;100.00;100271.38;5094977;28;20459;-59
2022/01/07 02:58:54;;;;;;;8.68;2.90;;;;;;;2.58;100.00;100265.25;5094538;28;20063;-59
2022/01/07 03:01:20;;;;;;;11.20;3.20;;;;;;;2.56;100.00;100269.63;5091851;28;20054;-59
2022/01/07 03:03:45;;;;;;;8.05;2.97;;;;;;;2.63;100.00;100264.31;5094756;28;20028;-59
2022/01/07 03:06:10;;;;;;;7.78;3.00;;;;;;;2.61;100.00;100261.75;5094647;28;20039;-59
2022/01/07 03:08:36;;;;;;;6.22;3.10;;;;;;;2.64;100.00;100261.69;5094698;28;20089;-59
2022/01/07 03:11:01;;;;;;;14.48;3.10;;;;;;;2.65;100.00;100259.94;5094185;28;20052;-59
2022/01/07 03:13:27;;;;;;;5.50;3.47;;;;;;;2.62;100.00;100268.66;5094476;28;20032;-59
2022/01/07 03:15:52;;;;;;;7.90;2.60;;;;;;;2.55;100.00;100267.06;5075972;28;20048;-59
2022/01/07 03:18:18;;;;;;;6.50;3.05;;;;;;;2.51;100.00;100271.44;5094020;28;20043;-59
2022/01/07 03:20:43;;;;;;;7.97;3.15;;;;;;;2.46;100.00;100264.66;5094272;28;20092;-59
2022/01/07 03:23:11;;;;;;;4.82;2.72;;;;;;;2.38;100.00;100254.44;5093852;28;20024;-59
2022/01/07 03:25:37;;;;;;;11.02;3.80;;;;;;;2.31;100.00;100246.78;5068954;28;20031;-59
2022/01/07 03:28:03;;;;;;;12.85;3.70;;;;;;;2.25;100.00;100242.59;5094314;28;20076;-59
2022/01/07 03:30:28;;;;;;;9.57;3.28;;;;;;;2.25;100.00;100246.91;5093897;28;20024;-60
2022/01/07 03:32:54;;;;;;;10.23;3.75;;;;;;;2.21;100.00;100235.75;5109862;28;20080;-60
2022/01/07 03:35:19;;;;;;;8.85;3.72;;;;;;;2.06;100.00;100234.28;5093878;28;20031;-60
2022/01/07 03:37:45;;;;;;;9.60;3.33;;;;;;;2.03;100.00;100231.75;5093829;28;20478;-59
2022/01/07 03:40:12;;;;;;;8.48;3.80;;;;;;;2.03;100.00;100231.75;5094157;28;20024;-59
2022/01/07 03:42:38;;;;;;;11.90;3.83;;;;;;;1.98;100.00;100231.00;5075759;28;20035;-59
2022/01/07 03:45:08;;;;;;;7.60;3.83;;;;;;;1.56;100.00;100167.00;5093878;28;20110;-59
2022/01/07 03:47:33;;;;;;;8.60;3.85;;;;;;;1.73;100.00;100210.72;5094183;28;20035;-59
2022/01/07 03:49:59;;;;;;;10.40;4.50;;;;;;;1.87;100.00;100240.69;5093631;28;20034;-59
2022/01/07 03:52:24;;;;;;;7.22;3.92;;;;;;;1.85;100.00;100224.34;5093502;28;20032;-60
2022/01/07 03:54:50;;;;;;;8.80;3.70;;;;;;;1.88;100.00;100229.47;5093489;28;20039;-60
2022/01/07 03:57:17;;;;;;;14.35;3.97;;;;;;;1.83;100.00;100222.63;5091624;28;20024;-60
2022/01/07 03:59:42;;;;;;;10.65;3.50;;;;;;;1.84;100.00;100219.16;5093492;28;20379;-61
2022/01/07 04:02:08;;;;;;;13.30;4.28;;;;;;;1.80;100.00;100220.97;5093560;28;20102;-60
2022/01/07 04:04:33;;;;;;;7.78;3.53;;;;;;;1.79;100.00;100221.81;5085567;28;20032;-60
2022/01/07 04:06:59;;;;;;;10.18;4.25;;;;;;;1.81;100.00;100225.25;5092189;28;20148;-60
2022/01/07 04:09:24;;;;;;;14.38;4.03;;;;;;;1.83;100.00;100220.91;5093546;28;20030;-60
2022/01/07 04:11:49;;;;;;;15.45;4.15;;;;;;;1.84;100.00;100219.16;5093441;28;20028;-60
2022/01/07 04:14:15;;;;;;;11.65;3.65;;;;;;;1.85;100.00;100213.13;5091893;28;20074;-60
2022/01/07 04:16:40;;;;;;;9.38;4.35;;;;;;;1.72;100.00;100203.84;5093362;28;20455;-61
2022/01/07 04:19:06;;;;;;;9.32;3.83;;;;;;;1.72;100.00;100203.84;5092871;28;20030;-60
2022/01/07 04:21:31;;;;;;;13.43;4.22;;;;;;;1.65;100.00;100208.28;5093493;28;20060;-60
2022/01/07 04:23:56;;;;;;;7.45;3.90;;;;;;;1.64;100.00;100213.47;5090651;28;20390;-60
2022/01/07 04:26:22;;;;;;;11.27;3.70;;;;;;;1.66;100.00;100212.56;5093219;28;20099;-60
2022/01/07 04:28:47;;;;;;;13.90;3.88;;;;;;;1.66;100.00;100204.78;5092444;28;20031;-61
2022/01/07 04:31:13;;;;;;;8.23;3.50;;;;;;;1.67;100.00;100203.94;5093130;28;20036;-60
2022/01/07 04:33:38;;;;;;;15.98;4.50;;;;;;;1.68;100.00;100203.06;5092919;28;20059;-60
2022/01/07 04:36:03;;;;;;;7.55;3.80;;;;;;;1.71;100.00;100203.00;5093055;28;20127;-60
2022/01/07 04:38:29;;;;;;;12.30;3.70;;;;;;;1.69;100.00;100209.09;5093276;28;20036;-60
2022/01/07 04:40:54;;;;;;;13.30;4.45;;;;;;;1.70;100.00;100210.78;5092785;28;20024;-60
2022/01/07 04:43:20;;;;;;;7.13;3.45;;;;;;;1.73;100.00;100210.72;5093230;28;20027;-60
2022/01/07 04:45:45;;;;;;;9.45;3.85;;;;;;;1.74;100.00;100207.25;5089879;28;20020;-60
2022/01/07 04:48:11;;;;;;;8.55;4.10;;;;;;;1.75;100.00;100215.03;5092548;28;20726;-60
2022/01/07 04:50:37;;;;;;;8.00;4.22;;;;;;;1.75;100.00;100196.03;5093084;28;20028;-60
2022/01/07 04:53:03;;;;;;;9.68;4.28;;;;;;;1.72;100.00;100204.72;5074893;28;20390;-60
2022/01/07 04:55:35;;;;;;;7.47;3.15;;;;;;;1.61;100.00;100185.06;5092821;28;20039;-60
2022/01/07 04:58:00;;;;;;;10.82;4.57;;;;;;;1.79;100.00;100193.34;5092606;28;20109;-60
2022/01/07 05:00:26;;;;;;;8.15;3.75;;;;;;;1.79;100.00;100190.75;5093044;28;20063;-60
2022/01/07 05:02:51;;;;;;;8.60;4.15;;;;;;;1.80;100.00;100201.97;5092740;28;20080;-60
2022/01/07 05:05:18;;;;;;;10.57;4.10;;;;;;;1.79;100.00;100201.09;5090712;28;20039;-60
2022/01/07 05:07:43;;;;;;;10.27;3.65;;;;;;;1.81;100.00;100190.72;5093094;28;20047;-60
2022/01/07 05:10:12;;;;;;;6.43;4.00;;;;;;;1.65;100.00;100160.81;5092735;28;20024;-60
2022/01/07 05:12:37;;;;;;;8.05;3.72;;;;;;;1.89;100.00;100191.47;5090904;28;20024;-60
2022/01/07 05:15:05;;;;;;;13.30;4.20;;;;;;;1.92;100.00;100189.66;5092774;28;20532;-60
2022/01/07 05:17:30;;;;;;;8.05;3.72;;;;;;;1.99;100.00;100188.66;5092967;28;20054;-60
2022/01/07 05:19:55;;;;;;;10.10;3.95;;;;;;;1.98;100.00;100181.78;5092413;28;20519;-60
2022/01/07 05:22:21;;;;;;;14.02;4.50;;;;;;;2.02;100.00;100188.63;5092709;28;20032;-60
2022/01/07 05:24:46;;;;;;;8.35;3.25;;;;;;;2.08;100.00;100184.19;5091655;28;20040;-60
2022/01/07 05:27:11;;;;;;;10.48;4.68;;;;;;;2.15;100.00;100178.84;5092371;28;20039;-60
2022/01/07 05:29:37;;;;;;;8.23;3.92;;;;;;;2.17;100.00;100182.25;5087611;28;20115;-60
2022/01/07 05:32:04;;;;;;;10.55;3.78;;;;;;;2.21;100.00;100185.66;5091972;28;20028;-60
2022/01/07 05:34:29;;;;;;;4.93;3.47;;;;;;;2.19;100.00;100190.03;5090836;28;20040;-60
2022/01/07 05:36:55;;;;;;;7.25;3.47;;;;;;;2.17;100.00;100182.25;5092380;28;20140;-60
2022/01/07 05:39:20;;;;;;;5.35;3.53;;;;;;;2.21;100.00;100191.69;5092521;28;20063;-60
2022/01/07 05:41:45;;;;;;;6.40;4.03;;;;;;;2.20;100.00;100186.56;5090100;28;20092;-60
2022/01/07 05:44:11;;;;;;;6.10;3.35;;;;;;;2.24;100.00;100188.19;5096256;28;20031;-60
2022/01/07 05:46:36;;;;;;;7.10;3.70;;;;;;;2.26;100.00;100183.84;5096575;28;20038;-60
2022/01/07 05:49:01;;;;;;;7.82;4.15;;;;;;;2.29;100.00;100181.19;5095227;28;20081;-60
2022/01/07 05:51:27;;;;;;;7.68;3.70;;;;;;;2.28;100.00;100174.28;5095781;28;20436;-60
2022/01/07 05:53:52;;;;;;;11.05;4.05;;;;;;;2.30;100.00;100167.34;5091980;28;20028;-60
2022/01/07 05:56:18;;;;;;;9.52;3.80;;;;;;;2.28;100.00;100167.34;5095821;28;20032;-60
2022/01/07 05:58:43;;;;;;;6.00;4.03;;;;;;;2.27;100.00;100167.38;5077687;28;20035;-60
2022/01/07 06:01:11;;;;;;;10.25;4.07;;;;;;;2.12;100.00;100146.97;5095836;28;20036;-60
2022/01/07 06:03:37;;;;;;;7.20;3.85;;;;;;;2.26;100.00;100160.50;5095852;28;20540;-60
2022/01/07 06:06:02;;;;;;;5.97;3.28;;;;;;;2.30;100.00;100168.16;5095069;28;20028;-60
2022/01/07 06:08:28;;;;;;;6.90;3.53;;;;;;;2.32;100.00;100174.19;5095693;28;20047;-60
2022/01/07 06:10:53;;;;;;;6.55;3.80;;;;;;;2.33;100.00;100167.28;5095733;28;20092;-60
2022/01/07 06:13:18;;;;;;;8.95;3.85;;;;;;;2.38;100.00;100165.44;5095310;28;20759;-60
2022/01/07 06:15:44;;;;;;;6.13;3.38;;;;;;;2.41;100.00;100171.41;5095352;28;20463;-60
2022/01/07 06:18:09;;;;;;;5.03;3.63;;;;;;;2.41;100.00;100165.38;5067451;28;20822;-60
2022/01/07 06:20:35;;;;;;;7.07;3.78;;;;;;;2.42;100.00;100167.06;5095499;28;20366;-60
2022/01/07 06:23:00;;;;;;;7.10;3.75;;;;;;;2.42;100.00;100156.72;5095298;28;20038;-60
2022/01/07 06:25:25;;;;;;;6.68;3.53;;;;;;;2.45;100.00;100156.63;5095366;28;20107;-60
2022/01/07 06:27:51;;;;;;;7.30;4.40;;;;;;;2.33;100.00;100141.34;5094986;28;20024;-61
2022/01/07 06:30:16;;;;;;;10.18;4.28;;;;;;;2.48;100.00;100167.81;5094744;28;20416;-60
2022/01/07 06:32:42;;;;;;;7.65;4.55;;;;;;;2.51;100.00;100166.88;5092642;28;20035;-60
2022/01/07 06:35:09;;;;;;;7.28;3.60;;;;;;;2.51;100.00;100185.03;5094378;28;20035;-60
2022/01/07 06:37:35;;;;;;;7.32;3.72;;;;;;;2.54;100.00;100159.88;5092557;28;20024;-60
2022/01/07 06:40:01;;;;;;;9.82;4.18;;;;;;;2.59;100.00;100170.16;5095097;28;20035;-60
2022/01/07 06:42:27;;;;;;;14.82;4.38;;;;;;;2.51;100.00;100156.50;5093680;28;20047;-60
2022/01/07 06:44:52;;;;;;;9.40;4.80;;;;;;;2.59;100.00;100159.78;5110206;28;20055;-60
2022/01/07 06:47:17;;;;;;;7.85;4.32;;;;;;;2.62;100.00;100170.09;5095041;28;20475;-60
2022/01/07 06:49:43;;;;;;;6.05;4.18;;;;;;;2.66;100.00;100161.38;5088266;28;20375;-60
2022/01/07 06:52:08;;;;;;;8.48;4.45;;;;;;;2.68;100.00;100169.09;5094089;28;20165;-60
2022/01/07 06:54:34;;;;;;;5.88;4.07;;;;;;;2.22;100.00;100097.50;5094735;28;20051;-60
2022/01/07 06:56:59;;;;;;;9.95;4.82;;;;;;;2.71;100.00;100175.06;5095086;28;20039;-60
2022/01/07 06:59:25;;;;;;;7.05;4.18;;;;;;;2.54;100.00;100148.66;5081084;28;20417;-64
2022/01/07 07:01:50;;;;;;;18.33;4.57;;;;;;;2.65;100.00;100149.28;5094992;28;20023;-60
2022/01/07 07:04:16;;;;;;;7.43;3.78;;;;;;;2.78;100.00;100165.41;5094508;28;20489;-60
2022/01/07 07:06:42;;;;;;;7.22;4.03;;;;;;;2.82;100.00;100162.72;5094792;28;20039;-60
2022/01/07 07:09:08;;;;;;;6.55;3.85;;;;;;;2.67;100.00;100131.94;5094363;28;20028;-59
2022/01/07 07:11:33;;;;;;;5.25;3.67;;;;;;;2.89;100.00;100168.63;5094458;28;20111;-59
2022/01/07 07:13:59;;;;;;;4.55;2.90;;;;;;;2.87;100.00;100171.25;5093297;28;20475;-59
2022/01/07 07:16:24;;;;;;;5.90;3.65;;;;;;;2.90;100.00;100171.22;5053694;28;20039;-59
2022/01/07 07:18:50;;;;;;;6.10;3.67;;;;;;;2.54;100.00;100110.63;5048195;28;20076;-59
2022/01/07 07:21:15;;;;;;;7.15;3.90;;;;;;;2.76;100.00;100142.13;5045781;28;20801;-59
2022/01/07 07:23:41;;;;;;;6.20;3.33;;;;;;;2.94;100.00;100161.63;5045484;28;20219;-59
2022/01/07 07:26:06;;;;;;;5.22;3.28;;;;;;;2.95;100.00;100158.97;5045324;28;20094;-59
2022/01/07 07:28:35;;;;;;;7.00;3.33;;;;;;;2.92;100.00;100151.25;5048376;28;20032;-59
2022/01/07 07:31:01;;;;;;;5.70;2.83;;;;;;;2.81;100.00;100139.41;5047534;28;20031;-60
2022/01/07 07:38:42;;;;;;;7.05;3.30;;;;;;;2.95;100.00;100176.25;5045381;28;20096;-60
2022/01/07 07:41:07;;;;;;;5.43;3.15;;;;;;;2.94;100.00;100185.78;5045985;28;20041;-59
2022/01/07 07:43:34;;;;;;;5.05;2.92;;;;;;;2.93;100.00;100176.31;5044008;28;20016;-60
2022/01/07 07:45:59;;;;;;;6.40;3.22;;;;;;;2.31;100.00;100070.53;5045306;28;20031;-61
2022/01/07 07:48:25;;;;;;;4.32;2.42;;;;;;;2.92;100.00;100195.38;5061445;28;20020;-60
2022/01/07 07:50:51;;;;;;;6.32;3.17;;;;;;;2.92;100.00;100187.56;5027305;28;20028;-60
2022/01/07 07:53:16;;;;;;;4.47;3.10;;;;;;;2.82;100.00;100175.69;5045294;28;20950;-59
2022/01/07 07:55:43;;;;;;;5.22;2.90;;;;;;;2.88;100.00;100177.28;5045126;28;20055;-60
2022/01/07 07:58:09;;;;;;;4.25;2.50;;;;;;;2.94;100.00;100195.34;5044750;28;20096;-60
2022/01/07 08:00:34;;;;;;;3.90;2.33;;;;;;;2.95;100.00;100189.25;5046976;28;20039;-60
2022/01/07 08:03:00;;;;;;;4.13;2.50;;;;;;;2.64;100.00;100134.59;5046167;28;20028;-60
2022/01/07 08:05:25;;;;;;;4.35;2.67;;;;;;;2.92;100.00;100179.78;5044816;28;20038;-60
2022/01/07 08:07:50;;;;;;;6.72;3.03;;;;;;;2.87;100.00;100171.25;5046798;28;20544;-60
2022/01/07 08:10:22;;;;;;;4.38;2.08;;;;;;;2.96;100.00;100185.78;5062490;28;20423;-60
2022/01/07 08:13:25;;;;;;;6.38;2.75;;;;;;;2.78;100.00;100144.66;5045273;28;20032;-60
2022/01/07 08:15:59;;;;;;;4.68;2.53;;;;;;;2.96;100.00;100177.97;5048028;28;20040;-60
2022/01/07 08:18:27;;;;;;;6.57;3.25;;;;;;;2.98;100.00;100165.81;5046661;28;20963;-60
2022/01/07 08:20:54;;;;;;;4.55;2.45;;;;;;;2.99;100.00;100164.94;5048557;28;20058;-60
2022/01/07 08:23:20;;;;;;;4.63;2.58;;;;;;;3.00;100.00;100157.13;5029976;28;20085;-60
2022/01/07 08:25:46;;;;;;;4.15;2.33;;;;;;;3.03;100.00;100151.88;5048264;28;20024;-60
2022/01/07 08:28:13;;;;;;;5.95;2.58;;;;;;;3.03;100.00;100162.25;5048662;28;20057;-60
2022/01/07 08:30:59;;;;;;;5.30;2.53;;;;;;;3.06;100.00;100162.16;5046452;28;20094;-60
2022/01/07 08:36:09;;;;;;;3.33;2.42;;;;;;;3.17;100.00;100179.22;5047430;28;20097;-60
2022/01/07 08:38:34;;;;;;;3.50;1.90;;;;;;;3.15;100.00;100162.81;5046730;28;20125;-60
2022/01/07 08:41:00;;;;;;;4.30;2.47;;;;;;;3.18;100.00;100165.38;5046395;28;20023;-60
2022/01/07 08:43:25;;;;;;;7.38;2.40;;;;;;;3.08;100.00;100144.81;5029026;28;20148;-61
2022/01/07 08:45:50;;;;;;;5.07;2.40;;;;;;;3.30;100.00;100171.13;5048107;28;20891;-60
2022/01/07 08:48:16;;;;;;;4.28;2.55;;;;;;;3.36;100.00;100183.09;5046858;28;20074;-61
2022/01/07 08:50:41;;;;;;;6.28;2.03;;;;;;;3.42;100.00;100169.94;5048079;28;20024;-61
2022/01/07 08:53:07;;;;;;;3.20;1.88;;;;;;;3.45;100.00;100169.84;5047225;28;20036;-60
2022/01/07 08:55:33;;;;;;;5.57;2.35;;;;;;;3.47;100.00;100173.28;5046617;28;20089;-60
2022/01/07 08:57:58;;;;;;;4.30;2.20;;;;;;;3.49;100.00;100161.97;5046537;28;20020;-60
2022/01/07 09:00:24;;;;;;;3.60;2.42;;;;;;;3.48;100.00;100149.03;5046605;28;20804;-60
2022/01/07 09:02:49;;;;;;;3.78;2.00;;;;;;;3.37;100.00;100131.13;5046992;28;20135;-60
2022/01/07 09:05:15;;;;;;;4.40;2.00;;;;;;;3.16;100.00;100094.44;5045387;28;20034;-60
2022/01/07 09:07:40;;;;;;;6.03;2.40;;;;;;;3.51;100.00;100148.97;5044341;28;20027;-60
2022/01/07 09:10:06;;;;;;;3.70;2.00;;;;;;;3.50;100.00;100153.28;5045883;28;20024;-60
2022/01/07 09:12:31;;;;;;;3.25;1.98;;;;;;;3.54;100.00;100183.50;5043969;28;20097;-60
2022/01/07 09:14:57;;;;;;;4.90;2.45;;;;;;;3.53;100.00;100180.91;5044893;28;20857;-60
2022/01/07 09:17:22;;;;;;;8.07;2.67;;;;;;;3.52;100.00;100179.22;5051449;28;20059;-60
2022/01/07 09:19:48;;;;;;;7.63;2.67;;;;;;;3.53;100.00;100180.91;5051515;28;20024;-60
2022/01/07 09:22:14;;;;;;;8.05;2.33;;;;;;;3.53;100.00;100179.19;5050511;28;20415;-60
2022/01/07 09:24:39;;;;;;;3.63;2.33;;;;;;;3.54;100.00;100195.63;5050658;28;20150;-60
2022/01/07 09:27:05;;;;;;;3.83;2.30;;;;;;;3.52;100.00;100197.38;5049792;28;20031;-60
2022/01/07 09:29:30;;;;;;;4.32;2.78;;;;;;;3.53;100.00;100191.31;5030472;28;20067;-60
2022/01/07 09:31:56;;;;;;;5.82;3.40;;;;;;;3.54;100.00;100188.69;5031219;28;20820;-60
2022/01/07 09:34:21;;;;;;;4.55;2.85;;;;;;;3.55;100.00;100189.50;5049225;28;20070;-60
2022/01/07 09:36:47;;;;;;;8.15;3.72;;;;;;;3.50;100.00;100183.59;5047867;28;20024;-60
2022/01/07 09:39:13;;;;;;;5.07;3.30;;;;;;;3.62;100.00;100182.44;5049069;28;20036;-60
2022/01/07 09:41:38;;;;;;;5.32;2.78;;;;;;;3.68;100.00;100184.88;5050582;28;20020;-60
2022/01/07 09:44:11;;;;;;;4.38;2.47;;;;;;;3.70;100.00;100176.16;5048923;28;20020;-60
2022/01/07 09:46:37;;;;;;;4.70;3.00;;;;;;;3.63;100.00;100156.41;5048891;28;20024;-60
2022/01/07 09:49:04;;;;;;;5.22;2.60;;;;;;;3.79;100.00;100165.50;5047953;28;21014;-60
2022/01/07 09:51:30;;;;;;;4.93;2.80;;;;;;;3.83;100.00;100164.53;5048747;28;20028;-60
2022/01/07 09:53:55;;;;;;;4.63;2.90;;;;;;;3.85;100.00;100170.53;5047038;28;20090;-60
2022/01/07 09:56:20;;;;;;;4.97;2.85;;;;;;;3.65;100.00;100131.25;5029074;28;20028;-60
2022/01/07 09:58:46;;;;;;;3.83;2.15;;;;;;;3.89;100.00;100166.97;5048624;28;20040;-60
2022/01/07 10:01:16;;;;;;;3.85;2.40;;;;;;;3.64;100.00;100121.78;5049153;28;20056;-60
2022/01/07 10:03:43;;;;;;;5.95;2.70;;;;;;;3.97;100.00;100158.97;5049005;28;20031;-60
2022/01/07 10:06:20;;;;;;;4.32;2.88;;;;;;;4.01;100.00;100165.81;5049320;28;20893;-60
2022/01/07 10:08:57;;;;;;;4.47;2.67;;;;;;;4.02;100.00;100165.75;5048042;28;20032;-60
2022/01/07 10:11:23;;;;;;;5.07;3.25;;;;;;;4.06;100.00;100158.72;5049389;28;20879;-60
2022/01/07 10:13:51;;;;;;;5.53;3.03;;;;;;;4.05;100.00;100150.09;5049675;28;20054;-60
2022/01/07 10:16:21;;;;;;;4.15;2.30;;;;;;;3.94;100.00;100126.13;5049385;28;20431;-60
2022/01/07 10:18:47;;;;;;;4.18;2.33;;;;;;;4.12;100.00;100143.78;5030974;28;20090;-60
2022/01/07 10:21:16;;;;;;;5.70;3.15;;;;;;;4.22;100.00;100143.56;5048642;28;20862;-61
2022/01/07 10:23:46;;;;;;;4.45;2.75;;;;;;;4.22;100.00;100133.16;5050102;28;20822;-60
2022/01/07 10:26:18;;;;;;;4.80;2.72;;;;;;;4.19;100.00;100133.25;5029948;28;20210;-61
2022/01/07 10:28:45;;;;;;;4.75;2.60;;;;;;;4.17;100.00;100145.41;5048399;28;20025;-61
2022/01/07 10:31:20;;;;;;;8.20;4.45;;;;;;;4.14;100.00;100130.78;5048249;28;20096;-61
2022/01/07 10:33:48;;;;;;;6.90;3.10;;;;;;;4.08;100.00;100121.41;5045804;28;20877;-61
2022/01/07 10:36:19;;;;;;;4.68;2.78;;;;;;;4.06;100.00;100119.72;5048357;28;20097;-60
2022/01/07 10:39:02;;;;;;;6.68;2.75;;;;;;;4.03;100.00;100112.00;5046890;28;20143;-60
2022/01/07 10:41:27;;;;;;;5.80;2.97;;;;;;;4.08;100.00;100111.00;5044931;28;20063;-60
2022/01/07 10:43:52;;;;;;;5.78;3.35;;;;;;;3.95;100.00;100077.59;5046648;28;20852;-60
2022/01/07 10:46:23;;;;;;;9.40;3.72;;;;;;;4.21;100.00;100105.44;5046579;28;20055;-60
2022/01/07 10:48:57;;;;;;;5.32;2.90;;;;;;;4.29;100.00;100111.28;5046744;28;20054;-60
2022/01/07 10:51:26;;;;;;;5.43;3.17;;;;;;;4.41;100.00;100105.72;5028016;28;20028;-60
2022/01/07 10:54:04;;;;;;;6.30;3.50;;;;;;;4.45;100.00;100099.53;5046395;28;20032;-61
2022/01/07 10:56:33;;;;;;;8.07;3.83;;;;;;;4.57;100.00;100109.53;5047646;28;20036;-61
2022/01/07 10:59:07;;;;;;;6.13;3.22;;;;;;;4.71;100.00;100096.97;5046460;28;20093;-60
2022/01/07 11:01:38;;;;;;;6.28;3.45;;;;;;;4.96;100.00;100103.13;5047082;28;20032;-60
2022/01/07 11:04:07;;;;;;;7.10;3.97;;;;;;;5.23;100.00;100090.09;5048149;28;20036;-60
2022/01/07 11:06:33;;;;;;;6.78;3.38;;;;;;;5.33;100.00;100086.28;5047787;28;20118;-60
2022/01/07 11:08:59;;;;;;;7.63;3.20;;;;;;;5.31;100.00;100083.69;5047243;28;20771;-60
2022/01/07 11:11:26;;;;;;;10.02;3.58;;;;;;;5.48;100.00;100089.19;5061743;28;20058;-61
2022/01/07 11:13:52;;;;;;;4.88;2.97;;;;;;;5.58;100.00;100089.72;5046423;28;20052;-60
2022/01/07 11:16:18;;;;;;;10.32;3.95;;;;;;;5.77;100.00;100082.13;5047832;28;20024;-60
2022/01/07 11:18:45;;;;;;;6.20;3.30;;;;;;;5.73;100.00;100080.53;5045833;28;20086;-60
2022/01/07 11:21:11;;;;;;;7.38;4.55;;;;;;;5.71;100.00;100084.94;5047455;28;20750;-61
2022/01/07 11:23:38;;;;;;;6.43;4.13;;;;;;;5.76;100.00;100083.00;5062611;28;20024;-61
2022/01/07 11:26:05;;;;;;;7.57;4.28;;;;;;;5.66;100.00;100067.72;5047527;28;20028;-61